aviador You're here:

CYAM Decoded Metar

SAULT SAINTE MARIE in ON, CANADA
Report Time2017-10-18 19:00:00
UTC Time2017-10-18 20:01:41
Flight Rules vfr VFR
Wind210° at 10 Gusting to 17 kt
W.Decomp.*RWY 22: 10.0 kt HW 0.5 kt LCW
RWY 30: 1.2 kt HW 9.9 kt LCW
W.Rank210° ranks 19
Current wind is above 210° avg. (7.2)
Visibility9999 m
Phenomena:N/A
Clouds:Few 039 Hf
Few 320 Hf
Few 350 Hf
Expected CloudBase > 4,000 ft AGL from Temp-Dew spread
CeilingNone
Temp20°C (ISA +6)
Dew Point10°C (53% RH)
AAT16.5°C
QNH1012 hPa
Density Alt1,562 ft
Elevation630 ft
Report Wrong Elevation
Raw Report
CYAM 181900Z 21010G17KT 15SM FEW039 FEW320 FEW350 20/10 A2989 RMK
CF1CC1CI1 CF TR CC TR CI TR CONTRAILS SLP127 DENSITY ALT
1400FT=

Extra information for CYAM:More info

Metar Taf Metar & Taf Last 4 Metars F.Rules Stats Wind Profile Meteogram Temp Stats Airport Information Weather charts Add Link Nearby VenuesMetar ALERT Operation Metar Decoded Social comments